Time;durP1;ratioP1;P1;durP2;ratioP2;P2;SDS_P1;SDS_P2;PMS_P1;PMS_P2;Temp;Humidity;BMP_temperature;BMP_pressure;BME280_temperature;BME280_humidity;BME280_pressure;Samples;Min_cycle;Max_cycle;Signal;HPM_P1;HPM_P2
2022/11/11 00:01:23;;;;;;;23.58;11.60;;;;;;;8.99;100.00;101358.72;6320927;28;20047;-73
2022/11/11 00:04:24;;;;;;;22.85;11.50;;;;;;;8.97;100.00;101346.66;6320830;28;20036;-73
2022/11/11 00:07:25;;;;;;;23.40;11.82;;;;;;;8.87;100.00;101362.59;6321903;28;20043;-74
2022/11/11 00:10:27;;;;;;;20.58;10.70;;;;;;;8.80;100.00;101365.44;6303867;28;20055;-74
2022/11/11 00:13:29;;;;;;;20.27;10.38;;;;;;;8.68;100.00;101370.13;6321941;28;20040;-73
2022/11/11 00:25:04;;;;;;;18.45;10.57;;;;;;;8.63;100.00;101382.44;6320690;28;20127;-73
2022/11/11 00:26:42;;;;;;;23.58;10.65;;;;;;;8.47;100.00;101386.44;6321630;28;20467;-77
2022/11/11 00:29:46;;;;;;;17.30;9.10;;;;;;;8.20;100.00;101381.13;6320464;28;20044;-77
2022/11/11 00:32:47;;;;;;;18.02;9.93;;;;;;;8.27;100.00;101379.19;6320608;28;20483;-77
2022/11/11 00:35:54;;;;;;;23.63;10.27;;;;;;;8.28;100.00;101376.56;6321800;28;20126;-77
2022/11/11 00:38:57;;;;;;;20.23;9.55;;;;;;;8.28;100.00;101379.16;6320322;28;20044;-77
2022/11/11 00:41:57;;;;;;;13.43;8.45;;;;;;;8.19;100.00;101387.22;6321526;28;20028;-77
2022/11/11 00:45:00;;;;;;;18.20;8.32;;;;;;;8.11;100.00;101389.19;6320212;28;20074;-77
2022/11/11 00:51:23;;;;;;;13.30;8.03;;;;;;;8.07;100.00;101387.59;6320144;28;20055;-77
2022/11/11 00:54:24;;;;;;;14.00;7.78;;;;;;;8.02;100.00;101386.88;6321400;28;20434;-77
2022/11/11 00:57:25;;;;;;;15.80;8.15;;;;;;;8.00;100.00;101392.13;6303056;28;20439;-77
2022/11/11 01:00:26;;;;;;;14.65;7.72;;;;;;;7.98;100.00;101398.25;6321353;28;20040;-77
2022/11/11 01:03:26;;;;;;;14.20;7.38;;;;;;;7.99;100.00;101397.34;6321257;28;20557;-77
2022/11/11 01:06:27;;;;;;;16.55;7.63;;;;;;;7.97;100.00;101396.53;6320336;28;20052;-77
2022/11/11 01:09:28;;;;;;;12.20;7.50;;;;;;;7.99;100.00;101394.75;6326207;28;20090;-77
2022/11/11 01:12:29;;;;;;;14.13;7.00;;;;;;;7.94;100.00;101389.69;6326384;28;20040;-77
2022/11/11 01:15:32;;;;;;;14.05;8.20;;;;;;;7.94;100.00;101387.09;6307970;28;20048;-77
2022/11/11 01:18:33;;;;;;;20.58;8.13;;;;;;;7.94;100.00;101391.44;6326119;28;20040;-77
2022/11/11 01:21:33;;;;;;;11.70;6.43;;;;;;;7.99;100.00;101392.16;6324730;28;20059;-73
2022/11/11 01:24:36;;;;;;;11.10;5.32;;;;;;;7.98;100.00;101391.31;6324706;28;20092;-74
2022/11/11 01:27:37;;;;;;;12.70;5.97;;;;;;;8.06;100.00;101394.53;6325790;28;20044;-74
2022/11/11 01:30:38;;;;;;;12.00;6.03;;;;;;;8.08;100.00;101402.31;6324578;28;20091;-74
2022/11/11 01:33:39;;;;;;;10.50;6.05;;;;;;;8.18;100.00;101405.50;6325781;28;20377;-73
2022/11/11 01:36:39;;;;;;;16.25;6.25;;;;;;;8.16;100.00;101402.94;6325657;28;20044;-74
2022/11/11 01:39:40;;;;;;;12.02;6.25;;;;;;;8.14;100.00;101409.06;6324407;28;20085;-74
2022/11/11 01:42:49;;;;;;;10.85;6.55;;;;;;;8.16;100.00;101402.94;6325603;28;20458;-78
2022/11/11 01:45:54;;;;;;;12.15;6.18;;;;;;;8.14;100.00;101403.88;6324487;28;20538;-77
2022/11/11 01:49:19;;;;;;;12.48;5.68;;;;;;;8.11;100.00;101398.75;6324135;28;20044;-75
2022/11/11 01:52:31;;;;;;;10.77;6.20;;;;;;;8.02;100.00;101399.88;6324098;28;20048;-74
2022/11/11 01:55:32;;;;;;;12.70;5.65;;;;;;;7.95;100.00;101396.59;6324894;28;20284;-74
2022/11/11 01:58:33;;;;;;;13.38;6.43;;;;;;;7.95;100.00;101404.41;6325004;28;20040;-74
2022/11/11 02:01:35;;;;;;;9.88;5.30;;;;;;;7.91;100.00;101405.38;6325037;28;20124;-74
2022/11/11 02:08:00;;;;;;;11.77;5.90;;;;;;;7.83;100.00;101417.75;6324767;28;20062;-74
2022/11/11 02:11:15;;;;;;;10.10;5.65;;;;;;;7.72;100.00;101409.38;6324893;28;20040;-74
2022/11/11 02:14:34;;;;;;;12.45;6.70;;;;;;;7.67;100.00;101415.56;6324688;28;20040;-74
2022/11/11 02:17:35;;;;;;;13.82;5.85;;;;;;;7.60;100.00;101413.19;6322903;28;20070;-74
2022/11/11 02:20:39;;;;;;;10.07;6.00;;;;;;;7.54;100.00;101406.41;6324684;28;20479;-74
2022/11/11 02:24:07;;;;;;;9.38;5.93;;;;;;;7.52;100.00;101405.59;6324115;28;20046;-74
2022/11/11 02:27:13;;;;;;;7.75;5.00;;;;;;;7.43;100.00;101406.69;6306954;28;20105;-73
2022/11/11 02:30:15;;;;;;;12.38;5.65;;;;;;;7.43;100.00;101411.00;6324052;28;20054;-73
2022/11/11 02:33:16;;;;;;;10.82;6.00;;;;;;;7.47;100.00;101410.91;6325132;28;20475;-73
2022/11/11 02:36:16;;;;;;;11.63;5.65;;;;;;;7.47;100.00;101410.91;6323644;28;20055;-73
2022/11/11 02:39:17;;;;;;;16.42;6.28;;;;;;;7.39;100.00;101418.06;6324801;28;20048;-73
2022/11/11 02:42:20;;;;;;;9.80;5.63;;;;;;;7.39;100.00;101427.56;6323504;28;20056;-73
2022/11/11 02:45:20;;;;;;;;;;;;;;;7.45;100.00;101422.22;6324410;28;20048;-77
2022/11/11 02:48:22;;;;;;;8.15;4.47;;;;;;;7.43;100.00;101430.06;6323215;28;19924;-77
2022/11/11 02:51:23;;;;;;;14.57;6.53;;;;;;;7.42;100.00;101425.75;6324093;28;20055;-75
2022/11/11 02:54:24;;;;;;;14.00;5.75;;;;;;;7.44;100.00;101423.13;6323436;28;20044;-75
2022/11/11 02:57:25;;;;;;;10.23;5.28;;;;;;;7.42;100.00;101430.09;6323141;28;20101;-74
2022/11/11 03:00:26;;;;;;;9.98;5.78;;;;;;;7.30;100.00;101420.03;6324322;28;20060;-73
2022/11/11 03:03:26;;;;;;;11.77;6.35;;;;;;;7.35;100.00;101438.94;6324314;28;20086;-74
2022/11/11 03:06:27;;;;;;;13.90;5.53;;;;;;;7.35;100.00;101434.59;6324115;28;20089;-74
2022/11/11 03:09:28;;;;;;;11.80;5.43;;;;;;;7.28;100.00;101451.22;6322894;28;20047;-74
2022/11/11 03:12:29;;;;;;;8.30;4.93;;;;;;;7.24;100.00;101452.19;6324047;28;20039;-73
2022/11/11 03:15:29;;;;;;;10.15;5.80;;;;;;;7.16;100.00;101449.75;6322887;28;20101;-73
2022/11/11 03:18:31;;;;;;;12.68;5.47;;;;;;;7.16;100.00;101452.38;6305803;28;20506;-74
2022/11/11 03:21:31;;;;;;;9.93;5.53;;;;;;;7.19;100.00;101449.72;6322645;28;20044;-73
2022/11/11 03:27:51;;;;;;;8.07;4.63;;;;;;;7.04;100.00;101456.13;6323717;28;20479;-73
2022/11/11 03:30:52;;;;;;;6.85;4.78;;;;;;;7.06;100.00;101451.75;6322902;28;20074;-74
2022/11/11 03:33:53;;;;;;;11.15;5.00;;;;;;;7.01;100.00;101458.78;6322355;28;20451;-74
2022/11/11 03:40:13;;;;;;;6.07;4.47;;;;;;;6.85;100.00;101457.44;6321260;28;20396;-74
2022/11/11 03:43:16;;;;;;;6.45;4.60;;;;;;;6.75;100.00;101449.00;6321449;28;20051;-74
2022/11/11 03:46:16;;;;;;;;;;;;;;;6.82;100.00;101460.97;6321743;28;20127;-75
2022/11/11 03:49:17;;;;;;;11.68;7.25;;;;;;;6.72;100.00;101467.25;6321114;28;19920;-74
2022/11/11 03:52:18;;;;;;;26.20;13.38;;;;;;;6.71;100.00;101457.75;6321272;28;20040;-74
2022/11/11 03:55:19;;;;;;;19.58;11.88;;;;;;;6.61;100.00;101461.44;6320989;28;20044;-74
2022/11/11 03:58:22;;;;;;;24.88;13.70;;;;;;;6.49;100.00;101464.31;6321023;28;20174;-73
2022/11/11 04:11:30;;;;;;;10.02;5.10;;;;;;;6.39;100.00;101474.03;6322006;28;20040;-77
2022/11/11 04:17:50;;;;;;;7.88;4.80;;;;;;;6.49;100.00;101482.47;6321834;28;20063;-74
2022/11/11 04:27:34;;;;;;;9.48;4.72;;;;;;;6.34;100.00;101492.28;6321647;28;20036;-74
2022/11/11 04:30:35;;;;;;;7.70;4.03;;;;;;;6.38;100.00;101491.31;6320368;28;20125;-74
2022/11/11 04:33:36;;;;;;;9.88;4.88;;;;;;;6.41;100.00;101496.44;6322084;28;20120;-73
2022/11/11 04:36:36;;;;;;;11.75;5.82;;;;;;;6.37;100.00;101494.78;6320264;28;20078;-74
2022/11/11 04:42:57;;;;;;;14.23;5.20;;;;;;;6.44;100.00;101503.28;6319979;28;20393;-77
2022/11/11 04:45:58;;;;;;;8.90;5.32;;;;;;;6.39;100.00;101503.38;6320167;28;20138;-77
2022/11/11 04:48:59;;;;;;;6.93;4.63;;;;;;;6.32;100.00;101506.13;6320294;28;20395;-77
2022/11/11 04:58:38;;;;;;;13.25;6.20;;;;;;;6.12;100.00;101503.94;6321314;28;20036;-77
2022/11/11 05:05:01;;;;;;;9.97;4.73;;;;;;;6.21;100.00;101516.72;6321140;28;20048;-77
2022/11/11 05:11:22;;;;;;;9.77;5.15;;;;;;;6.20;100.00;101535.75;6321006;28;20063;-78
2022/11/11 05:21:19;;;;;;;8.23;5.10;;;;;;;6.08;100.00;101536.84;6319831;28;20044;-77
2022/11/11 05:21:24;;;;;;;9.63;5.10;;;;;;;6.16;100.00;101534.97;6320560;28;20048;-77
2022/11/11 05:27:47;;;;;;;10.07;5.32;;;;;;;6.12;100.00;101528.13;6320908;28;20048;-77
2022/11/11 05:30:47;;;;;;;10.05;5.55;;;;;;;6.07;100.00;101539.44;6319750;28;20040;-77
2022/11/11 05:33:48;;;;;;;7.65;5.32;;;;;;;6.10;100.00;101542.00;6321078;28;20549;-77
2022/11/11 05:36:49;;;;;;;12.68;6.05;;;;;;;6.09;100.00;101548.91;6321109;28;20119;-77
2022/11/11 05:39:50;;;;;;;6.75;4.93;;;;;;;6.05;100.00;101545.53;6321055;28;20075;-77
2022/11/11 05:42:50;;;;;;;9.20;5.35;;;;;;;6.10;100.00;101560.13;6319689;28;20036;-78
2022/11/11 05:45:51;;;;;;;10.77;5.45;;;;;;;6.07;100.00;101558.44;6320720;28;20128;-78
2022/11/11 05:52:13;;;;;;;9.00;5.78;;;;;;;6.03;100.00;101565.44;6319321;28;20053;-78
2022/11/11 05:55:13;;;;;;;7.97;4.93;;;;;;;6.01;100.00;101571.50;6324678;28;20076;-77
2022/11/11 05:58:16;;;;;;;8.10;4.68;;;;;;;6.05;100.00;101575.75;6323676;28;20054;-78
2022/11/11 06:01:17;;;;;;;10.00;6.07;;;;;;;5.96;100.00;101575.94;6324785;28;20066;-78
2022/11/11 06:04:18;;;;;;;9.48;6.38;;;;;;;5.94;100.00;101575.06;6322435;28;20498;-78
2022/11/11 06:07:19;;;;;;;9.88;6.32;;;;;;;6.02;100.00;101583.59;6323249;28;20040;-78
2022/11/11 06:10:32;;;;;;;10.68;5.75;;;;;;;6.07;100.00;101581.75;6323410;28;20127;-78
2022/11/11 06:13:32;;;;;;;12.48;6.50;;;;;;;6.07;100.00;101584.34;6323347;28;20476;-78
2022/11/11 06:16:33;;;;;;;11.48;5.88;;;;;;;6.16;100.00;101588.53;6323382;28;20073;-78
2022/11/11 06:19:34;;;;;;;9.77;5.88;;;;;;;6.22;100.00;101596.19;6323300;28;20482;-78
2022/11/11 06:22:55;;;;;;;9.63;5.85;;;;;;;6.29;100.00;101594.34;6306140;28;20044;-78
2022/11/11 06:26:12;;;;;;;30.80;13.38;;;;;;;6.32;100.00;101592.56;6306125;28;20052;-78
2022/11/11 06:29:12;;;;;;;21.40;9.90;;;;;;;6.43;100.00;101592.34;6323135;28;20036;-78
2022/11/11 06:32:13;;;;;;;13.13;7.95;;;;;;;6.45;100.00;101577.63;6305936;28;20052;-78
2022/11/11 06:35:14;;;;;;;25.13;6.63;;;;;;;6.62;100.00;101585.06;6306082;28;20047;-78
2022/11/11 06:38:16;;;;;;;12.38;5.63;;;;;;;6.83;100.00;101596.72;6322780;28;20082;-78
2022/11/11 06:41:17;;;;;;;15.05;6.60;;;;;;;6.99;100.00;101592.06;6322741;28;20060;-78
2022/11/11 06:44:18;;;;;;;9.85;5.80;;;;;;;7.10;100.00;101581.44;6322626;28;20101;-78
2022/11/11 06:47:19;;;;;;;14.85;8.15;;;;;;;7.24;100.00;101584.59;6322539;28;20044;-78
2022/11/11 06:50:20;;;;;;;40.90;18.00;;;;;;;7.40;100.00;101598.09;6322572;28;20177;-78
2022/11/11 06:53:21;;;;;;;61.75;30.58;;;;;;;7.60;100.00;101600.22;6320149;28;20039;-78
2022/11/11 06:56:22;;;;;;;42.63;24.88;;;;;;;7.77;100.00;101590.25;6321367;28;20048;-78
2022/11/11 06:59:23;;;;;;;21.27;13.10;;;;;;;7.92;100.00;101593.38;6323496;28;20047;-78
2022/11/11 07:02:23;;;;;;;12.00;7.07;;;;;;;8.06;100.00;101594.72;6323006;28;20036;-78
2022/11/11 07:05:24;;;;;;;10.07;5.80;;;;;;;8.21;100.00;101592.59;6321749;28;20048;-78
2022/11/11 07:08:26;;;;;;;13.13;6.28;;;;;;;8.32;100.00;101594.91;6321291;28;20468;-78
2022/11/11 07:11:26;;;;;;;10.27;5.88;;;;;;;8.52;100.00;101599.59;6305065;28;20048;-77
2022/11/11 07:14:27;;;;;;;7.32;4.82;;;;;;;8.67;100.00;101609.59;6303674;28;20047;-78
2022/11/11 07:17:28;;;;;;;10.90;6.72;;;;;;;8.84;100.00;101619.53;6320840;28;20046;-78
2022/11/11 07:20:30;;;;;;;16.85;9.55;;;;;;;9.01;100.00;101617.25;6305128;28;20048;-77
2022/11/11 07:23:30;;;;;;;13.20;6.20;;;;;;;9.16;100.00;101607.28;6323098;28;20047;-77
2022/11/11 07:26:33;;;;;;;9.13;5.28;;;;;;;9.39;100.00;101619.59;6320855;28;20032;-77
2022/11/11 07:29:34;;;;;;;17.05;6.57;;;;;;;9.57;100.00;101626.84;6322346;28;20462;-78
2022/11/11 07:32:36;;;;;;;14.40;5.43;;;;;;;9.67;100.00;101625.66;6321468;28;20047;-78
2022/11/11 07:35:39;;;;;;;12.88;6.97;;;;;;;10.05;100.00;101640.97;6304667;28;20501;-78
2022/11/11 07:38:41;;;;;;;13.30;6.18;;;;;;;10.09;100.00;101645.16;6321429;28;20040;-74
2022/11/11 07:41:41;;;;;;;9.10;5.70;;;;;;;10.28;100.00;101642.78;6321326;28;20033;-74
2022/11/11 07:44:42;;;;;;;9.40;4.97;;;;;;;10.22;100.00;101648.19;6321282;28;20109;-74
2022/11/11 07:47:43;;;;;;;10.50;4.28;;;;;;;10.39;100.00;101660.69;6321177;28;20066;-74
2022/11/11 07:50:44;;;;;;;10.77;5.50;;;;;;;10.30;100.00;101661.88;6322409;28;20040;-74
2022/11/11 07:53:45;;;;;;;10.13;5.15;;;;;;;10.43;100.00;101663.13;6303204;28;20048;-74
2022/11/11 07:56:45;;;;;;;10.90;4.95;;;;;;;10.46;100.00;101676.09;6320988;28;20056;-74
2022/11/11 07:59:46;;;;;;;7.85;4.10;;;;;;;10.46;100.00;101677.88;6320804;28;20036;-74
2022/11/11 08:02:48;;;;;;;11.10;4.28;;;;;;;10.15;100.00;101678.00;6321334;28;20036;-74
2022/11/11 08:05:48;;;;;;;9.67;4.90;;;;;;;10.37;100.00;101686.84;6320510;28;20646;-74
2022/11/11 08:08:49;;;;;;;8.65;4.38;;;;;;;10.28;100.00;101695.81;6319878;28;20112;-73
2022/11/11 08:15:09;;;;;;;9.52;5.15;;;;;;;10.26;100.00;101694.16;6319911;28;20051;-78
2022/11/11 08:18:10;;;;;;;7.72;4.45;;;;;;;10.24;100.00;101688.13;6318750;28;20044;-78
2022/11/11 08:21:11;;;;;;;12.85;5.32;;;;;;;10.20;100.00;101696.97;6316863;28;20487;-78
2022/11/11 08:24:11;;;;;;;12.80;5.68;;;;;;;10.19;100.00;101705.69;6320471;28;20041;-78
2022/11/11 08:27:12;;;;;;;7.28;4.72;;;;;;;10.22;100.00;101710.81;6318851;28;20086;-77
2022/11/11 08:30:13;;;;;;;13.55;5.30;;;;;;;10.28;100.00;101700.19;6320298;28;20047;-78
2022/11/11 08:33:14;;;;;;;6.90;4.03;;;;;;;10.32;100.00;101685.31;6321207;28;20040;-77
2022/11/11 08:36:15;;;;;;;7.22;4.15;;;;;;;10.55;100.00;101697.56;6320041;28;20063;-77
2022/11/11 08:39:15;;;;;;;5.80;4.03;;;;;;;10.57;100.00;101700.97;6320268;28;20044;-74
2022/11/11 08:42:16;;;;;;;8.85;4.65;;;;;;;10.77;100.00;101693.28;6319660;28;20036;-74
2022/11/11 08:45:17;;;;;;;10.10;5.72;;;;;;;11.09;100.00;101699.09;6320666;28;20051;-74
2022/11/11 08:48:18;;;;;;;10.30;4.38;;;;;;;11.37;100.00;101695.47;6302912;28;20051;-74
2022/11/11 08:51:19;;;;;;;8.43;4.30;;;;;;;11.88;100.00;101707.38;6320098;28;20056;-74
2022/11/11 08:54:19;;;;;;;8.70;4.88;;;;;;;11.95;100.00;101693.19;6320519;28;20123;-74
2022/11/11 08:57:20;;;;;;;11.65;5.40;;;;;;;12.32;100.00;101702.13;6319222;28;20063;-74
2022/11/11 09:00:22;;;;;;;7.82;4.30;;;;;;;12.36;99.67;101697.63;6319524;28;20492;-74
2022/11/11 09:03:25;;;;;;;11.80;6.78;;;;;;;12.54;99.56;101701.19;6319324;28;20044;-74
2022/11/11 09:06:29;;;;;;;9.73;4.80;;;;;;;12.60;99.42;101699.19;6320781;28;20044;-74
2022/11/11 09:09:30;;;;;;;6.95;4.53;;;;;;;12.70;97.19;101703.13;6302927;28;20059;-74
2022/11/11 09:12:31;;;;;;;6.47;4.32;;;;;;;13.07;95.76;101708.47;6301879;28;20074;-74
2022/11/11 09:15:32;;;;;;;7.45;3.80;;;;;;;13.25;95.64;101698.94;6302391;28;20101;-74
2022/11/11 09:18:34;;;;;;;8.57;4.10;;;;;;;13.23;93.52;101690.28;6319744;28;20488;-74
2022/11/11 09:21:34;;;;;;;5.60;3.53;;;;;;;13.26;91.56;101698.00;6319590;28;20047;-74
2022/11/11 09:24:35;;;;;;;6.18;3.85;;;;;;;13.50;90.15;101699.50;6320684;28;20121;-74
2022/11/11 09:27:36;;;;;;;7.43;3.88;;;;;;;13.60;90.05;101699.09;6320020;28;20051;-78
2022/11/11 09:30:37;;;;;;;6.88;3.85;;;;;;;13.80;88.69;101692.88;6305650;28;20048;-78
2022/11/11 09:33:37;;;;;;;6.40;3.20;;;;;;;13.81;85.58;101694.56;6318150;28;20055;-78
2022/11/11 09:36:38;;;;;;;5.80;3.10;;;;;;;14.03;81.55;101703.09;6324784;28;20047;-78
2022/11/11 09:39:39;;;;;;;3.30;2.45;;;;;;;14.27;82.78;101689.69;6324237;28;20047;-78
2022/11/11 09:42:47;;;;;;;3.65;2.55;;;;;;;14.49;78.40;101695.53;6325294;28;20059;-78
2022/11/11 09:46:04;;;;;;;5.07;2.47;;;;;;;14.74;77.98;101696.06;6324075;28;20051;-78
2022/11/11 09:49:23;;;;;;;6.28;3.05;;;;;;;14.58;77.21;101693.38;6323558;28;20048;-78
2022/11/11 09:52:33;;;;;;;4.60;2.35;;;;;;;14.31;76.83;101693.84;6323551;28;20062;-78
2022/11/11 09:55:43;;;;;;;5.85;2.45;;;;;;;14.51;77.66;101691.03;6305114;28;20079;-78
2022/11/11 09:58:57;;;;;;;4.30;2.60;;;;;;;14.12;79.08;101675.53;6323164;28;20075;-78
2022/11/11 10:02:00;;;;;;;4.53;2.72;;;;;;;14.06;81.22;101679.34;6323321;28;20047;-78
2022/11/11 10:05:15;;;;;;;6.15;2.38;;;;;;;13.81;80.57;101677.06;6324184;28;20044;-78
2022/11/11 10:08:28;;;;;;;4.75;2.63;;;;;;;13.79;83.79;101675.44;6323240;28;20540;-77
2022/11/11 10:11:49;;;;;;;5.20;2.17;;;;;;;13.78;84.22;101674.59;6324307;28;20040;-77
2022/11/11 10:14:51;;;;;;;3.95;2.05;;;;;;;13.86;81.86;101674.22;6324002;28;20059;-78
2022/11/11 10:18:11;;;;;;;4.10;2.17;;;;;;;13.74;79.52;101665.16;6324383;28;20052;-78
2022/11/11 10:21:21;;;;;;;2.67;1.83;;;;;;;13.97;80.36;101657.94;6324437;28;20059;-78
2022/11/11 10:24:33;;;;;;;13.40;7.53;;;;;;;13.98;76.59;101649.13;6320103;28;20400;-77
2022/11/11 10:27:34;;;;;;;8.45;4.45;;;;;;;14.13;76.47;101651.00;6302352;28;20041;-78
2022/11/11 10:30:35;;;;;;;3.80;2.15;;;;;;;13.94;73.97;101635.34;6298969;28;20049;-78
2022/11/11 10:34:03;;;;;;;7.07;2.42;;;;;;;14.13;74.73;101637.03;6322205;28;20055;-77
2022/11/11 10:37:17;;;;;;;2.88;1.52;;;;;;;14.18;72.57;101635.00;6319625;28;20056;-78
2022/11/11 10:40:32;;;;;;;5.60;2.25;;;;;;;14.24;73.14;101630.28;6322635;28;20062;-77
2022/11/11 10:43:33;;;;;;;4.78;1.70;;;;;;;14.20;69.08;101638.41;6322846;28;20420;-78
2022/11/11 10:46:46;;;;;;;2.25;1.70;;;;;;;14.36;70.05;101630.59;6321707;28;20040;-78
2022/11/11 10:50:01;;;;;;;2.65;1.15;;;;;;;14.38;67.18;101629.59;6323341;28;20047;-77
2022/11/11 10:53:11;;;;;;;4.85;1.50;;;;;;;14.26;68.18;101617.94;6324829;28;20404;-78
2022/11/11 10:56:24;;;;;;;4.90;1.80;;;;;;;14.25;65.91;101616.25;6323243;28;20051;-78
2022/11/11 10:59:29;;;;;;;14.65;1.50;;;;;;;14.44;68.01;101602.16;6322229;28;20293;-78
2022/11/11 11:03:02;;;;;;;3.85;1.73;;;;;;;14.24;67.72;101611.91;6305232;28;20106;-78
2022/11/11 11:06:09;;;;;;;5.18;1.85;;;;;;;14.24;71.41;101609.28;6311389;28;20052;-78
2022/11/11 11:09:14;;;;;;;4.13;1.48;;;;;;;14.22;70.57;101600.63;6322216;28;20040;-78
2022/11/11 11:12:21;;;;;;;1.50;1.17;;;;;;;14.33;68.32;101607.97;6323693;28;20062;-78
2022/11/11 11:15:25;;;;;;;3.70;1.27;;;;;;;14.36;68.19;101599.94;6322535;28;20044;-78
2022/11/11 11:18:26;;;;;;;2.65;1.30;;;;;;;14.39;67.59;101602.41;6321904;28;20052;-77
2022/11/11 11:21:48;;;;;;;5.30;1.85;;;;;;;14.46;69.46;101611.66;6304853;28;20556;-78
2022/11/11 11:24:48;;;;;;;4.45;1.73;;;;;;;14.43;68.10;101603.94;6304597;28;20571;-77
2022/11/11 11:27:51;;;;;;;2.92;1.55;;;;;;;14.25;69.80;101608.38;6322067;28;20047;-77
2022/11/11 11:31:06;;;;;;;1.75;1.30;;;;;;;14.27;69.61;101622.28;6305643;28;20051;-78
2022/11/11 11:34:07;;;;;;;1.83;1.50;;;;;;;14.29;68.92;101620.41;6322174;28;20068;-78
2022/11/11 11:37:08;;;;;;;4.90;2.40;;;;;;;14.30;74.59;101622.09;6303689;28;20044;-78
2022/11/11 11:40:09;;;;;;;7.68;2.58;;;;;;;14.19;73.88;101627.06;6308174;28;20119;-78
2022/11/11 11:43:46;;;;;;;5.18;2.38;;;;;;;14.00;77.01;101623.66;6295313;28;20055;-78
2022/11/11 11:46:47;;;;;;;8.93;2.53;;;;;;;14.02;75.84;101627.06;6279400;28;20048;-78
2022/11/11 11:50:13;;;;;;;4.00;2.42;;;;;;;14.16;76.57;101616.72;6313049;28;20048;-78
2022/11/11 11:53:42;;;;;;;4.57;2.28;;;;;;;14.17;76.49;101612.34;6295907;28;20045;-78
2022/11/11 11:56:57;;;;;;;3.30;2.10;;;;;;;14.22;75.84;101610.31;6295825;28;20488;-77
2022/11/11 12:00:25;;;;;;;4.25;2.50;;;;;;;14.04;76.39;101622.59;6295821;28;20044;-77
2022/11/11 12:03:56;;;;;;;4.88;2.08;;;;;;;13.91;77.36;101624.97;6291272;28;20062;-76
2022/11/11 12:07:05;;;;;;;5.82;2.42;;;;;;;13.90;78.68;101618.06;6295472;28;20054;-76
2022/11/11 12:10:15;;;;;;;4.25;2.00;;;;;;;13.97;76.94;101627.28;6296713;28;20044;-77
2022/11/11 12:13:48;;;;;;;5.03;2.53;;;;;;;14.14;73.47;101628.22;6295470;28;20059;-77
2022/11/11 12:17:18;;;;;;;4.10;2.03;;;;;;;14.19;76.60;101626.22;6295338;28;20090;-77
2022/11/11 12:20:58;;;;;;;2.95;1.65;;;;;;;14.31;73.17;101634.31;6275614;28;20063;-77
2022/11/11 12:24:22;;;;;;;13.70;1.95;;;;;;;14.10;73.15;101632.78;6289096;28;20522;-76
2022/11/11 12:27:55;;;;;;;4.15;2.05;;;;;;;14.08;72.12;101632.00;6294060;28;20049;-76
2022/11/11 12:31:14;;;;;;;8.38;2.22;;;;;;;14.27;72.87;101634.56;6296924;28;20063;-77
2022/11/11 12:34:33;;;;;;;4.55;2.30;;;;;;;14.35;71.53;101628.88;6295118;28;20507;-76
2022/11/11 12:37:48;;;;;;;5.10;1.70;;;;;;;14.36;71.06;101633.22;6277445;28;20048;-77
2022/11/11 12:40:55;;;;;;;5.22;1.60;;;;;;;14.30;70.54;101634.38;6296402;28;20093;-76
2022/11/11 12:44:04;;;;;;;3.58;2.03;;;;;;;14.09;70.54;101624.06;6311138;28;20036;-76
2022/11/11 12:47:17;;;;;;;3.13;1.80;;;;;;;13.89;70.70;101618.97;6319174;28;20048;-76
2022/11/11 12:50:28;;;;;;;3.42;1.95;;;;;;;13.89;71.22;101613.72;6303009;28;20052;-77
2022/11/11 12:53:37;;;;;;;3.47;1.80;;;;;;;13.73;70.75;101615.41;6320912;28;20040;-76
2022/11/11 12:56:53;;;;;;;1.23;1.00;;;;;;;13.80;70.81;101603.69;6320681;28;20416;-77
2022/11/11 13:00:26;;;;;;;2.72;1.58;;;;;;;13.80;72.89;101606.31;6319506;28;20056;-76
2022/11/11 13:03:41;;;;;;;3.88;1.70;;;;;;;13.76;70.09;101604.78;6310861;28;20542;-76
2022/11/11 13:07:06;;;;;;;4.38;1.38;;;;;;;13.82;73.02;101601.84;6324903;28;20054;-76
2022/11/11 13:10:56;;;;;;;3.00;1.50;;;;;;;13.87;73.14;101612.94;6326824;28;20036;-76
2022/11/11 13:14:08;;;;;;;5.90;1.60;;;;;;;13.76;72.66;101618.72;6310589;28;20056;-74
2022/11/11 13:17:13;;;;;;;3.25;1.95;;;;;;;13.75;73.75;101616.19;6324617;28;20044;-73
2022/11/11 13:20:28;;;;;;;7.22;3.92;;;;;;;13.78;73.64;101616.03;6307964;28;20052;-76
2022/11/11 13:23:29;;;;;;;12.27;6.60;;;;;;;13.75;73.92;101618.78;6324413;28;20125;-77
2022/11/11 13:26:39;;;;;;;11.65;6.72;;;;;;;13.73;75.49;101623.28;6325750;28;20044;-76
2022/11/11 13:30:17;;;;;;;19.08;8.35;;;;;;;13.69;77.34;101607.69;6324650;28;20420;-76
2022/11/11 13:33:21;;;;;;;13.25;7.53;;;;;;;13.64;74.42;101611.47;6324444;28;20047;-77
2022/11/11 13:36:27;;;;;;;9.02;4.68;;;;;;;13.58;76.64;101612.59;6307225;28;20086;-76
2022/11/11 13:39:29;;;;;;;6.03;3.75;;;;;;;13.55;74.87;101623.25;6324319;28;20062;-76
2022/11/11 13:42:40;;;;;;;7.10;3.22;;;;;;;13.46;77.79;101621.91;6325440;28;20062;-76
2022/11/11 13:45:49;;;;;;;5.47;3.00;;;;;;;13.44;78.84;101626.38;6324028;28;20105;-76
2022/11/11 13:48:50;;;;;;;3.03;2.45;;;;;;;13.38;79.97;101620.59;6324171;28;20040;-76
2022/11/11 13:52:04;;;;;;;9.17;4.90;;;;;;;13.18;83.47;101619.75;6324119;28;20606;-76
2022/11/11 13:55:09;;;;;;;15.73;5.45;;;;;;;13.19;84.92;101626.66;6325479;28;20048;-76
2022/11/11 13:58:32;;;;;;;7.00;4.82;;;;;;;13.00;88.16;101623.22;6323657;28;20052;-76
2022/11/11 14:01:39;;;;;;;11.25;5.43;;;;;;;12.98;86.47;101625.06;6325095;28;20119;-76
2022/11/11 14:05:02;;;;;;;14.60;6.95;;;;;;;12.92;86.94;101620.09;6324867;28;20051;-73
2022/11/11 14:08:02;;;;;;;21.38;9.45;;;;;;;12.89;88.27;101616.69;6323593;28;20123;-74
2022/11/11 14:11:25;;;;;;;37.55;14.65;;;;;;;12.91;88.87;101621.88;6324697;28;20403;-73
2022/11/11 14:14:25;;;;;;;;;;;;;;;12.86;88.29;101619.44;6324351;28;20506;-73
2022/11/11 14:17:28;;;;;;;19.42;9.18;;;;;;;12.90;89.58;101618.38;6322897;28;19924;-73
2022/11/11 14:20:39;;;;;;;25.27;10.80;;;;;;;12.91;91.28;101611.41;6321963;28;20850;-73
2022/11/11 14:23:42;;;;;;;14.90;7.60;;;;;;;12.91;91.98;101606.16;6323129;28;20040;-73
2022/11/11 14:26:56;;;;;;;17.48;7.20;;;;;;;12.87;93.40;101597.59;6323416;28;20072;-76
2022/11/11 14:30:01;;;;;;;14.23;7.30;;;;;;;12.81;94.47;101590.00;6323138;28;20415;-77
2022/11/11 14:33:18;;;;;;;14.63;7.40;;;;;;;12.75;95.21;101585.03;6320665;28;20048;-76
2022/11/11 14:36:44;;;;;;;20.25;10.82;;;;;;;12.65;95.06;101578.53;6302656;28;20040;-76
2022/11/11 14:39:53;;;;;;;17.42;10.80;;;;;;;12.58;95.98;101583.19;6324092;28;20047;-73
2022/11/11 14:42:54;;;;;;;13.95;8.68;;;;;;;12.55;95.59;101582.47;6315118;28;20508;-73
2022/11/11 14:46:00;;;;;;;23.35;11.48;;;;;;;12.48;94.40;101589.78;6321866;28;20044;-73
2022/11/11 14:49:02;;;;;;;35.58;21.48;;;;;;;12.40;93.62;101592.72;6305100;28;20056;-73
2022/11/11 14:52:17;;;;;;;32.47;16.90;;;;;;;12.30;94.63;101600.13;6322873;28;20074;-73
2022/11/11 14:55:17;;;;;;;25.40;13.32;;;;;;;12.26;94.60;101595.09;6322504;28;20040;-73
2022/11/11 14:58:21;;;;;;;16.70;9.23;;;;;;;12.21;94.03;101612.75;6305227;28;20063;-73
2022/11/11 15:01:23;;;;;;;19.80;10.13;;;;;;;12.19;95.13;101597.13;6322130;28;20047;-73
2022/11/11 15:04:26;;;;;;;24.30;10.85;;;;;;;12.15;96.68;101577.25;6322483;28;20051;-73
2022/11/11 15:07:32;;;;;;;;;;;;;;;12.13;98.37;101573.84;6322550;28;20071;-73
2022/11/11 15:10:42;;;;;;;28.70;15.38;;;;;;;12.07;97.23;101574.09;6322214;28;20386;-73
2022/11/11 15:13:50;;;;;;;22.77;12.60;;;;;;;12.02;99.95;101573.44;6305334;28;20131;-73
2022/11/11 15:17:17;;;;;;;28.05;14.68;;;;;;;11.97;100.00;101583.25;6321662;28;20406;-76
2022/11/11 15:20:34;;;;;;;22.50;11.52;;;;;;;11.92;99.96;101593.06;6322029;28;20399;-77
2022/11/11 15:24:13;;;;;;;22.08;10.90;;;;;;;11.86;98.95;101589.75;6321941;28;20043;-76
2022/11/11 15:27:21;;;;;;;23.40;10.77;;;;;;;11.83;99.94;101589.03;6303657;28;20048;-76
2022/11/11 15:30:36;;;;;;;31.75;9.75;;;;;;;11.78;100.00;101591.84;6322698;28;20044;-76